Time;durP1;ratioP1;P1;durP2;ratioP2;P2;SDS_P1;SDS_P2;PMS_P1;PMS_P2;Temp;Humidity;BMP_temperature;BMP_pressure;BME280_temperature;BME280_humidity;BME280_pressure;Samples;Min_cycle;Max_cycle;Signal;HPM_P1;HPM_P2
2024/01/20 11:28:07;;;;;;;;;;;1.50;99.90;;;;;;2592151;31;21221;-77
2024/01/20 11:30:37;;;;;;;;;;;-1.00;99.90;;;;;;2622070;54;19953;-79
2024/01/20 11:33:10;;;;;;;;;;;-0.70;99.90;;;;;;2620364;47;20050;-79
2024/01/20 11:35:40;;;;;;;;;;;-1.20;99.90;;;;;;2618387;47;19953;-78
2024/01/20 11:38:10;;;;;;;;;;;-1.10;99.90;;;;;;2617759;47;20055;-76
2024/01/20 11:40:40;;;;;;;;;;;-1.10;99.90;;;;;;2619101;39;20371;-78
2024/01/20 11:43:12;;;;;;;;;;;-1.00;99.90;;;;;;2618137;47;19957;-78
2024/01/20 11:45:43;;;;;;;;;;;-1.00;99.90;;;;;;2619253;47;20065;-78
2024/01/20 11:48:15;;;;;;;;;;;-0.70;99.90;;;;;;2618757;54;20058;-78
2024/01/20 11:50:45;;;;;;;;;;;-1.00;99.90;;;;;;2619915;47;19954;-79
2024/01/20 11:53:15;;;;;;;;;;;-1.10;99.90;;;;;;2620378;47;20441;-79
2024/01/20 11:55:53;;;;;;;;;;;-0.90;99.90;;;;;;2620425;54;20497;-77
2024/01/20 11:58:26;;;;;;;;;;;-1.30;99.90;;;;;;2627933;39;20126;-81
2024/01/20 12:00:57;;;;;;;;;;;-1.30;99.90;;;;;;2626093;47;19977;-77
2024/01/20 12:03:28;;;;;;;;;;;-1.30;99.90;;;;;;2617900;47;19946;-75
2024/01/20 12:05:58;;;;;;;;;;;-1.20;99.90;;;;;;2617227;54;19935;-79
2024/01/20 12:08:28;;;;;;;;;;;-1.20;99.90;;;;;;2617462;39;20268;-79
2024/01/20 12:10:59;;;;;;;;;;;-1.10;99.90;;;;;;2616408;54;20003;-77
2024/01/20 12:13:33;;;;;;;;;;;-1.00;99.90;;;;;;2617462;47;19947;-78
2024/01/20 12:16:03;;;;;;;;;;;-1.00;99.90;;;;;;2624985;47;19942;-76
2024/01/20 12:18:33;;;;;;;;;;;-1.00;99.90;;;;;;2619182;39;20692;-76
2024/01/20 12:21:03;;;;;;;;;;;-1.00;99.90;;;;;;2616786;54;19987;-72
2024/01/20 12:23:33;;;;;;;;;;;-1.10;99.90;;;;;;2614915;47;19968;-73
2024/01/20 12:26:03;;;;;;;;;;;-1.10;99.90;;;;;;2615740;47;19946;-73
2024/01/20 12:28:36;;;;;;;;;;;-1.10;99.90;;;;;;2615882;39;20349;-73
2024/01/20 12:31:08;;;;;;;;;;;-1.10;99.90;;;;;;2614965;54;19945;-78
2024/01/20 12:33:40;;;;;;;;;;;-1.00;99.90;;;;;;2615578;47;19962;-73
2024/01/20 12:36:11;;;;;;;;;;;-1.00;99.90;;;;;;2617297;54;19947;-74
2024/01/20 12:38:41;;;;;;;;;;;-1.00;99.90;;;;;;2617369;47;19953;-76
2024/01/20 12:41:13;;;;;;;;;;;-1.00;99.90;;;;;;2615825;54;19939;-78
2024/01/20 12:43:48;;;;;;;;;;;-0.90;99.90;;;;;;2618042;54;19972;-76
2024/01/20 12:46:19;;;;;;;;;;;-0.80;99.90;;;;;;2615708;54;20002;-74
2024/01/20 12:48:49;;;;;;;;;;;-0.80;99.90;;;;;;2616798;47;19946;-77
2024/01/20 12:51:19;;;;;;;;;;;-0.70;99.90;;;;;;2616225;54;19967;-76
2024/01/20 12:53:50;;;;;;;;;;;-0.60;99.90;;;;;;2617344;47;19946;-75
2024/01/20 12:56:20;;;;;;;;;;;-0.70;99.90;;;;;;2617450;54;19951;-74
2024/01/20 12:58:53;;;;;;;;;;;-0.60;99.90;;;;;;2587985;47;19954;-75
2024/01/20 13:01:23;;;;;;;;;;;-0.70;99.90;;;;;;2616917;54;19954;-76
2024/01/20 13:03:55;;;;;;;;;;;-0.60;99.90;;;;;;2619438;47;19947;-77
2024/01/20 13:06:27;;;;;;;;;;;-0.70;99.90;;;;;;2618991;39;20941;-77
2024/01/20 13:08:57;;;;;;;;;;;-0.70;99.90;;;;;;2617268;54;19990;-76
2024/01/20 13:11:29;;;;;;;;;;;-0.70;99.90;;;;;;2617496;49;19942;-77
2024/01/20 13:14:03;;;;;;;;;;;-1.10;99.90;;;;;;2616700;54;19946;-75
2024/01/20 13:16:33;;;;;;;;;;;-1.00;99.90;;;;;;2617653;47;20043;-77
2024/01/20 13:19:03;;;;;;;;;;;-1.10;99.90;;;;;;2628317;47;19927;-76
2024/01/20 13:21:33;;;;;;;;;;;-1.30;99.90;;;;;;2620543;50;19958;-76
2024/01/20 13:24:03;;;;;;;;;;;-1.10;99.90;;;;;;2617290;54;19990;-76
2024/01/20 13:26:33;;;;;;;;;;;-1.10;99.90;;;;;;2616828;47;20430;-74
2024/01/20 13:29:06;;;;;;;;;;;-1.10;99.90;;;;;;2616609;47;19945;-76
2024/01/20 13:31:35;;;;;;;;;;;-1.10;99.90;;;;;;2616104;39;20337;-74
2024/01/20 13:34:05;;;;;;;;;;;-1.00;99.90;;;;;;2615929;54;19938;-75
2024/01/20 13:36:36;;;;;;;;;;;-0.90;99.90;;;;;;2617002;47;19962;-74
2024/01/20 13:39:06;;;;;;;;;;;-0.80;99.90;;;;;;2616979;54;19950;-77
2024/01/20 13:41:36;;;;;;;;;;;-0.80;99.90;;;;;;2616101;54;19939;-75
2024/01/20 13:44:09;;;;;;;;;;;-0.70;99.90;;;;;;2615216;54;19947;-76
2024/01/20 13:46:38;;;;;;;;;;;-0.70;99.90;;;;;;2614890;47;19945;-77
2024/01/20 13:49:08;;;;;;;;;;;-0.60;99.90;;;;;;2615555;47;19946;-75
2024/01/20 13:51:41;;;;;;;;;;;-0.60;99.90;;;;;;2616224;54;20507;-76
2024/01/20 13:54:11;;;;;;;;;;;-0.60;99.90;;;;;;2615672;47;19974;-75
2024/01/20 13:56:41;;;;;;;;;;;-0.70;99.90;;;;;;2615488;54;19934;-75
2024/01/20 13:59:14;;;;;;;;;;;-0.70;99.90;;;;;;2621159;54;19938;-74
2024/01/20 14:01:44;;;;;;;;;;;-0.70;99.90;;;;;;2618279;47;20422;-74
2024/01/20 14:04:14;;;;;;;;;;;-0.70;99.90;;;;;;2620311;39;20629;-77
2024/01/20 14:06:44;;;;;;;;;;;-0.70;99.90;;;;;;2618571;47;19968;-73
2024/01/20 14:09:14;;;;;;;;;;;-0.50;99.90;;;;;;2617258;39;20345;-75
2024/01/20 14:11:44;;;;;;;;;;;-0.70;99.90;;;;;;2620788;47;19938;-74
2024/01/20 14:14:17;;;;;;;;;;;-0.60;99.90;;;;;;2625342;47;20637;-75
2024/01/20 14:16:57;;;;;;;;;;;-0.60;99.90;;;;;;2623962;54;19958;-77
2024/01/20 14:19:37;;;;;;;;;;;-0.60;99.90;;;;;;2618993;54;20075;-73
2024/01/20 14:22:07;;;;;;;;;;;-0.60;99.90;;;;;;2619248;54;20055;-75
2024/01/20 14:24:37;;;;;;;;;;;-0.70;99.90;;;;;;2619384;54;20665;-75
2024/01/20 14:27:07;;;;;;;;;;;-0.70;99.90;;;;;;2623843;54;19938;-75
2024/01/20 14:29:40;;;;;;;;;;;-0.70;99.90;;;;;;2620667;47;19953;-74
2024/01/20 14:32:10;;;;;;;;;;;-0.80;99.90;;;;;;2623175;54;19967;-75
2024/01/20 14:34:40;;;;;;;;;;;-0.90;99.90;;;;;;2629454;47;19963;-77
2024/01/20 14:37:10;;;;;;;;;;;-0.80;99.90;;;;;;2619365;47;19950;-74
2024/01/20 14:39:40;;;;;;;;;;;-0.80;99.90;;;;;;2616894;54;19939;-74
2024/01/20 14:42:11;;;;;;;;;;;-0.70;99.90;;;;;;2617849;39;20389;-76
2024/01/20 14:44:43;;;;;;;;;;;-0.80;99.90;;;;;;2616853;47;19981;-73
2024/01/20 14:47:13;;;;;;;;;;;-0.90;99.90;;;;;;2617441;47;19998;-77
2024/01/20 14:49:43;;;;;;;;;;;-0.80;99.90;;;;;;2616119;47;20003;-73
2024/01/20 14:52:14;;;;;;;;;;;-0.80;99.90;;;;;;2616469;54;19950;-74
2024/01/20 14:54:44;;;;;;;;;;;-0.80;99.90;;;;;;2587345;39;20289;-74
2024/01/20 14:57:14;;;;;;;;;;;-0.80;99.90;;;;;;2617610;54;20450;-75
2024/01/20 14:59:46;;;;;;;;;;;-0.80;99.90;;;;;;2616724;47;19939;-74
2024/01/20 15:02:16;;;;;;;;;;;-0.80;99.90;;;;;;2618962;54;19945;-74
2024/01/20 15:04:45;;;;;;;;;;;-0.80;99.90;;;;;;2619686;46;20096;-74
2024/01/20 15:07:15;;;;;;;;;;;-0.90;99.90;;;;;;2618029;47;19946;-74
2024/01/20 15:09:45;;;;;;;;;;;-0.90;99.90;;;;;;2618800;47;19946;-73
2024/01/20 15:12:15;;;;;;;;;;;-1.00;99.90;;;;;;2618197;54;19947;-72
2024/01/20 15:14:47;;;;;;;;;;;-0.90;99.90;;;;;;2618597;46;19946;-74
2024/01/20 15:17:17;;;;;;;;;;;-0.90;99.90;;;;;;2618336;54;19992;-74
2024/01/20 15:19:47;;;;;;;;;;;-1.00;99.90;;;;;;2618470;54;19970;-73
2024/01/20 15:22:17;;;;;;;;;;;-1.10;99.90;;;;;;2614775;39;21611;-75
2024/01/20 15:24:48;;;;;;;;;;;-1.20;99.90;;;;;;2617013;54;19974;-78
2024/01/20 15:27:18;;;;;;;;;;;-1.10;99.90;;;;;;2612115;47;20002;-78
2024/01/20 15:29:50;;;;;;;;;;;-1.50;99.90;;;;;;2615585;47;19947;-76
2024/01/20 15:32:20;;;;;;;;;;;-1.20;99.90;;;;;;2613586;47;19946;-75
2024/01/20 15:34:49;;;;;;;;;;;-1.20;99.90;;;;;;2613261;54;19947;-77
2024/01/20 15:37:19;;;;;;;;;;;-1.40;99.90;;;;;;2610980;39;20358;-75
2024/01/20 15:39:49;;;;;;;;;;;-1.40;99.90;;;;;;2611678;47;19953;-75
2024/01/20 15:42:19;;;;;;;;;;;-1.40;99.90;;;;;;2616002;47;19946;-75
2024/01/20 15:44:51;;;;;;;;;;;-1.60;99.90;;;;;;2616140;46;19977;-73
2024/01/20 15:47:21;;;;;;;;;;;-1.50;99.90;;;;;;2617659;47;19967;-74
2024/01/20 15:49:51;;;;;;;;;;;-1.40;99.90;;;;;;2615913;47;20472;-74
2024/01/20 15:52:20;;;;;;;;;;;-1.30;99.90;;;;;;2618522;47;19939;-74
2024/01/20 15:54:50;;;;;;;;;;;-1.20;99.90;;;;;;2613245;46;19963;-74
2024/01/20 15:57:20;;;;;;;;;;;-1.20;99.90;;;;;;2610730;47;19946;-73
2024/01/20 15:59:52;;;;;;;;;;;-1.10;99.90;;;;;;2616454;31;20509;-73
2024/01/20 16:02:22;;;;;;;;;;;-1.10;99.90;;;;;;2615115;47;19946;-73
2024/01/20 16:04:52;;;;;;;;;;;-1.10;99.90;;;;;;2613394;54;19958;-72
2024/01/20 16:07:21;;;;;;;;;;;-1.10;99.90;;;;;;2617143;54;19946;-73
2024/01/20 16:09:51;;;;;;;;;;;-1.10;99.90;;;;;;2617214;54;19986;-75
2024/01/20 16:12:21;;;;;;;;;;;-1.00;99.90;;;;;;2617264;54;20011;-73
2024/01/20 16:14:53;;;;;;;;;;;-1.00;99.90;;;;;;2615998;54;20525;-72
2024/01/20 16:17:23;;;;;;;;;;;-1.00;99.90;;;;;;2622046;47;19939;-74
2024/01/20 16:19:52;;;;;;;;;;;-1.00;99.90;;;;;;2620013;39;20311;-74
2024/01/20 16:22:22;;;;;;;;;;;-1.00;99.90;;;;;;2620770;47;19948;-75
2024/01/20 16:24:52;;;;;;;;;;;-1.00;99.90;;;;;;2620056;54;19953;-73
2024/01/20 16:27:22;;;;;;;;;;;-1.00;99.90;;;;;;2617880;39;20009;-73
2024/01/20 16:29:54;;;;;;;;;;;-1.00;99.90;;;;;;2616940;54;19954;-74
2024/01/20 16:32:24;;;;;;;;;;;-1.00;99.90;;;;;;2616617;47;19956;-74
2024/01/20 16:34:54;;;;;;;;;;;-0.20;99.90;;;;;;2616422;54;19956;-72
2024/01/20 16:37:23;;;;;;;;;;;-0.90;99.90;;;;;;2614770;54;19946;-73
2024/01/20 16:39:57;;;;;;;;;;;-1.00;99.90;;;;;;2615819;54;20395;-74
2024/01/20 16:42:27;;;;;;;;;;;-1.00;99.90;;;;;;2615804;54;20465;-71
2024/01/20 16:44:59;;;;;;;;;;;-1.00;99.90;;;;;;2616954;54;19951;-74
2024/01/20 16:47:29;;;;;;;;;;;-1.10;99.90;;;;;;2616260;47;19957;-73
2024/01/20 16:49:59;;;;;;;;;;;-1.00;99.90;;;;;;2616795;47;19935;-71
2024/01/20 16:52:28;;;;;;;;;;;-1.00;99.90;;;;;;2615999;52;20445;-73
2024/01/20 16:54:58;;;;;;;;;;;-1.00;99.90;;;;;;2614943;54;20029;-72
2024/01/20 16:57:44;;;;;;;;;;;-1.00;99.90;;;;;;2615743;54;19954;-72
2024/01/20 17:00:17;;;;;;;;;;;-1.00;99.90;;;;;;2617530;47;20518;-73
2024/01/20 17:02:46;;;;;;;;;;;-1.00;99.90;;;;;;2615112;54;19954;-74
2024/01/20 17:05:16;;;;;;;;;;;-1.00;99.90;;;;;;2616077;54;19950;-73
2024/01/20 17:07:46;;;;;;;;;;;-1.10;99.90;;;;;;2605953;54;20476;-70
2024/01/20 17:10:16;;;;;;;;;;;-1.10;99.90;;;;;;2594000;54;20580;-72
2024/01/20 17:12:45;;;;;;;;;;;-1.10;99.90;;;;;;2603208;47;20506;-69
2024/01/20 17:15:18;;;;;;;;;;;-1.10;99.90;;;;;;2596512;47;20056;-73
2024/01/20 17:17:48;;;;;;;;;;;-1.10;99.90;;;;;;2596388;54;19954;-71
2024/01/20 17:20:18;;;;;;;;;;;0.10;99.90;;;;;;2597152;54;20037;-72
2024/01/20 17:22:47;;;;;;;;;;;-1.00;99.90;;;;;;2596158;47;19957;-71
2024/01/20 17:25:17;;;;;;;;;;;-1.00;99.90;;;;;;2596505;47;19947;-70
2024/01/20 17:27:49;;;;;;;;;;;-1.10;99.90;;;;;;2596599;54;19946;-71
2024/01/20 17:30:22;;;;;;;;;;;-1.10;99.90;;;;;;2597954;54;20664;-72
2024/01/20 17:32:51;;;;;;;;;;;-1.10;99.90;;;;;;2598636;54;19954;-72
2024/01/20 17:35:21;;;;;;;;;;;-1.10;99.90;;;;;;2597748;54;21709;-74
2024/01/20 17:37:53;;;;;;;;;;;-1.10;99.90;;;;;;2596593;47;19946;-71
2024/01/20 17:40:23;;;;;;;;;;;-1.10;99.90;;;;;;2597397;54;19950;-69
2024/01/20 17:42:52;;;;;;;;;;;-1.00;99.90;;;;;;2595875;54;20332;-74
2024/01/20 17:45:25;;;;;;;;;;;-2.30;99.90;;;;;;2597927;54;19974;-70
2024/01/20 17:47:55;;;;;;;;;;;-0.90;99.90;;;;;;2599014;54;19935;-74
2024/01/20 17:50:25;;;;;;;;;;;-0.80;99.90;;;;;;2597238;47;20041;-72
2024/01/20 17:52:55;;;;;;;;;;;-1.00;99.90;;;;;;2597044;47;19947;-69
2024/01/20 17:55:26;;;;;;;;;;;-1.00;99.90;;;;;;2594491;54;19939;-72
2024/01/20 17:57:55;;;;;;;;;;;-1.00;99.90;;;;;;2594977;54;21637;-77
2024/01/20 18:00:28;;;;;;;;;;;-1.00;99.90;;;;;;2595976;54;19950;-71
2024/01/20 18:02:58;;;;;;;;;;;-1.10;99.90;;;;;;2596322;47;19946;-70
2024/01/20 18:05:28;;;;;;;;;;;-1.30;99.90;;;;;;2596098;47;19951;-77
2024/01/20 18:07:57;;;;;;;;;;;-1.30;99.90;;;;;;2596275;39;20326;-72
